Time;durP1;ratioP1;P1;durP2;ratioP2;P2;SDS_P1;SDS_P2;PMS_P1;PMS_P2;Temp;Humidity;BMP_temperature;BMP_pressure;BME280_temperature;BME280_humidity;BME280_pressure;Samples;Min_cycle;Max_cycle;Signal;HPM_P1;HPM_P2
2021/05/06 00:02:59;;;;;;;11.10;9.73;;;;;;;;;;5005810;28;20463;-96
2021/05/06 00:08:26;;;;;;;12.50;9.43;;;;;;;;;;4960556;28;20500;-96
2021/05/06 00:32:57;;;;;;;10.70;8.40;;;;;;;;;;4973939;28;20509;-95
2021/05/06 00:35:25;;;;;;;10.23;9.17;;;;;;;;;;4993428;28;20459;-95
2021/05/06 00:37:58;;;;;;;9.63;8.63;;;;;;;;;;5006276;28;20448;-95
2021/05/06 00:40:31;;;;;;;10.70;8.23;;;;;;;;;;5003226;28;21005;-96
2021/05/06 00:56:57;;;;;;;9.63;8.60;;;;;;;;;;4992898;28;20512;-96
2021/05/06 00:59:49;;;;;;;8.33;7.53;;;;;;;;;;4994620;28;20496;-96
2021/05/06 01:05:01;;;;;;;9.63;8.30;;;;;;;;;;4983340;28;20485;-96
2021/05/06 01:07:42;;;;;;;14.50;9.70;;;;;;;;;;5000659;28;20476;-94
2021/05/06 01:10:21;;;;;;;10.40;8.40;;;;;;;;;;4998087;28;20467;-95
2021/05/06 01:12:48;;;;;;;13.47;8.27;;;;;;;;;;4996625;28;20458;-95
2021/05/06 01:15:14;;;;;;;10.40;7.63;;;;;;;;;;5005585;28;20489;-96
2021/05/06 01:17:40;;;;;;;8.80;7.23;;;;;;;;;;4994434;28;20946;-94
2021/05/06 01:20:07;;;;;;;14.80;10.80;;;;;;;;;;4996812;28;20449;-94
2021/05/06 01:22:34;;;;;;;9.30;8.33;;;;;;;;;;5009479;28;20461;-96
2021/05/06 01:25:00;;;;;;;11.27;7.37;;;;;;;;;;5003330;28;20503;-95
2021/05/06 01:27:43;;;;;;;9.03;8.10;;;;;;;;;;5001622;28;20431;-96
2021/05/06 01:30:18;;;;;;;9.80;8.37;;;;;;;;;;4991828;28;20465;-95
2021/05/06 01:32:47;;;;;;;12.57;8.00;;;;;;;;;;4985562;28;20477;-96
2021/05/06 01:35:18;;;;;;;13.37;9.57;;;;;;;;;;4984785;28;20523;-96
2021/05/06 01:37:55;;;;;;;16.07;10.90;;;;;;;;;;5009350;28;20448;-94
2021/05/06 01:43:04;;;;;;;11.83;10.13;;;;;;;;;;4995338;28;20983;-96
2021/05/06 01:45:50;;;;;;;12.07;10.03;;;;;;;;;;4982656;28;20492;-95
2021/05/06 01:48:35;;;;;;;13.67;10.77;;;;;;;;;;4985953;28;20465;-95
2021/05/06 01:59:19;;;;;;;12.50;9.53;;;;;;;;;;4993192;28;20512;-96
2021/05/06 02:01:45;;;;;;;13.30;9.80;;;;;;;;;;4988084;28;20964;-96
2021/05/06 02:04:20;;;;;;;11.20;10.10;;;;;;;;;;4996436;28;20474;-96
2021/05/06 02:06:47;;;;;;;10.90;9.80;;;;;;;;;;5002649;28;20446;-96
2021/05/06 02:09:14;;;;;;;8.30;6.83;;;;;;;;;;4986591;28;20470;-96
2021/05/06 02:11:40;;;;;;;8.10;6.80;;;;;;;;;;4993064;28;20456;-95
2021/05/06 02:14:07;;;;;;;7.57;5.93;;;;;;;;;;4989377;28;20463;-96
2021/05/06 02:16:35;;;;;;;7.37;5.87;;;;;;;;;;4993738;28;20910;-96
2021/05/06 02:19:02;;;;;;;8.87;6.97;;;;;;;;;;4996294;28;20465;-94
2021/05/06 02:21:28;;;;;;;8.37;6.20;;;;;;;;;;5000812;28;20454;-93
2021/05/06 02:23:55;;;;;;;7.30;6.20;;;;;;;;;;4993979;28;20457;-95
2021/05/06 02:26:22;;;;;;;7.50;5.83;;;;;;;;;;4990855;28;20459;-94
2021/05/06 02:28:48;;;;;;;6.13;5.53;;;;;;;;;;4994713;28;20488;-96
2021/05/06 02:31:14;;;;;;;6.43;5.77;;;;;;;;;;4994188;28;21011;-95
2021/05/06 02:33:40;;;;;;;8.50;6.70;;;;;;;;;;4992074;28;20540;-95
2021/05/06 02:36:07;;;;;;;7.37;5.57;;;;;;;;;;4990762;28;20465;-96
2021/05/06 02:38:33;;;;;;;6.70;5.77;;;;;;;;;;4995360;28;20463;-96
2021/05/06 02:40:59;;;;;;;9.10;5.73;;;;;;;;;;4981630;28;20476;-95
2021/05/06 02:43:26;;;;;;;9.73;6.17;;;;;;;;;;4992168;28;20455;-96
2021/05/06 02:45:52;;;;;;;7.60;6.07;;;;;;;;;;4984484;28;20498;-96
2021/05/06 02:48:18;;;;;;;6.17;5.57;;;;;;;;;;4996991;28;20462;-95
2021/05/06 02:50:48;;;;;;;11.77;6.70;;;;;;;;;;4982821;28;20460;-95
2021/05/06 02:53:17;;;;;;;10.20;6.67;;;;;;;;;;4998023;28;20467;-93
2021/05/06 02:55:52;;;;;;;7.40;6.20;;;;;;;;;;5001690;28;20464;-95
2021/05/06 02:58:31;;;;;;;6.03;5.53;;;;;;;;;;4990827;28;20452;-95
2021/05/06 03:06:27;;;;;;;8.60;4.80;;;;;;;;;;5006342;28;20449;-96
2021/05/06 03:08:55;;;;;;;9.80;6.70;;;;;;;;;;4994387;28;20480;-96
2021/05/06 03:11:38;;;;;;;9.03;5.53;;;;;;;;;;4983459;28;20463;-95
2021/05/06 03:14:21;;;;;;;10.20;5.43;;;;;;;;;;4995888;28;20468;-95
2021/05/06 03:25:16;;;;;;;7.23;4.43;;;;;;;;;;4955192;29;20500;-96
2021/05/06 03:27:48;;;;;;;6.67;5.00;;;;;;;;;;4952951;29;20584;-94
2021/05/06 03:30:34;;;;;;;4.93;4.30;;;;;;;;;;4977824;28;20970;-95
2021/05/06 03:35:57;;;;;;;5.00;4.60;;;;;;;;;;4996420;28;20514;-94
2021/05/06 03:43:56;;;;;;;9.23;6.57;;;;;;;;;;4988038;28;20457;-94
2021/05/06 03:49:35;;;;;;;6.90;5.57;;;;;;;;;;5000579;28;20441;-95
2021/05/06 04:17:14;;;;;;;7.53;6.67;;;;;;;;;;4961095;29;20460;-93
2021/05/06 04:27:57;;;;;;;16.90;15.20;;;;;;;;;;4990193;28;20478;-95
2021/05/06 04:30:42;;;;;;;18.63;16.70;;;;;;;;;;4988044;28;20976;-96
2021/05/06 04:35:54;;;;;;;19.23;13.13;;;;;;;;;;4986884;28;20973;-95
2021/05/06 04:38:23;;;;;;;15.73;11.53;;;;;;;;;;4984011;28;20461;-95
2021/05/06 04:44:13;;;;;;;14.33;12.93;;;;;;;;;;4986940;28;20461;-96
2021/05/06 04:54:44;;;;;;;14.90;13.37;;;;;;;;;;4994081;28;21449;-95
2021/05/06 05:05:29;;;;;;;13.53;12.13;;;;;;;;;;4949902;28;20511;-95
2021/05/06 05:08:01;;;;;;;14.27;12.83;;;;;;;;;;4993401;28;20523;-96
2021/05/06 05:13:42;;;;;;;14.87;10.07;;;;;;;;;;5155670;27;857127;-96
2021/05/06 05:19:03;;;;;;;11.53;10.33;;;;;;;;;;5176421;27;20442;-95
2021/05/06 05:24:16;;;;;;;12.03;9.60;;;;;;;;;;5164521;27;20437;-94
2021/05/06 05:26:44;;;;;;;9.77;8.80;;;;;;;;;;5171719;27;20469;-94
2021/05/06 05:29:10;;;;;;;11.10;9.93;;;;;;;;;;5178425;27;20461;-93
2021/05/06 05:31:37;;;;;;;13.00;9.80;;;;;;;;;;5164882;27;20493;-94
2021/05/06 05:34:14;;;;;;;10.43;9.33;;;;;;;;;;5164851;27;20459;-95
2021/05/06 05:36:40;;;;;;;13.73;9.40;;;;;;;;;;5180770;27;20436;-96
2021/05/06 05:39:11;;;;;;;11.30;9.33;;;;;;;;;;5176222;27;20482;-95
2021/05/06 05:55:19;;;;;;;11.30;8.10;;;;;;;;;;5167858;27;20431;-95
2021/05/06 05:57:48;;;;;;;10.67;8.83;;;;;;;;;;5180613;27;20457;-96
2021/05/06 06:00:15;;;;;;;12.67;9.60;;;;;;;;;;5176385;27;20480;-94
2021/05/06 06:02:41;;;;;;;9.70;8.70;;;;;;;;;;5161719;27;20505;-94
2021/05/06 06:05:08;;;;;;;11.70;8.50;;;;;;;;;;5169203;27;20464;-93
2021/05/06 06:07:34;;;;;;;11.87;7.97;;;;;;;;;;5162322;27;20437;-96
2021/05/06 06:10:00;;;;;;;11.83;7.73;;;;;;;;;;5177360;27;20463;-94
2021/05/06 06:12:26;;;;;;;8.00;6.93;;;;;;;;;;5167594;27;20506;-96
2021/05/06 06:14:57;;;;;;;11.30;8.27;;;;;;;;;;5172655;27;20462;-95
2021/05/06 06:17:25;;;;;;;9.43;8.00;;;;;;;;;;5165990;27;20452;-96
2021/05/06 06:19:53;;;;;;;10.20;8.03;;;;;;;;;;5173124;27;20444;-95
2021/05/06 06:22:20;;;;;;;11.57;7.67;;;;;;;;;;5167116;27;20552;-95
2021/05/06 06:24:46;;;;;;;10.43;7.50;;;;;;;;;;5150889;27;20441;-95
2021/05/06 06:27:13;;;;;;;11.67;7.50;;;;;;;;;;5153316;27;20483;-95
2021/05/06 06:29:39;;;;;;;10.03;6.33;;;;;;;;;;5147425;27;20446;-95
2021/05/06 06:32:11;;;;;;;6.20;4.80;;;;;;;;;;5153181;27;20810;-96
2021/05/06 06:34:38;;;;;;;6.67;4.77;;;;;;;;;;5160765;27;20452;-96
2021/05/06 06:37:04;;;;;;;11.30;6.53;;;;;;;;;;5145281;27;20525;-94
2021/05/06 06:39:30;;;;;;;11.03;6.43;;;;;;;;;;5155141;27;20442;-96
2021/05/06 06:41:56;;;;;;;9.73;5.80;;;;;;;;;;5154878;27;20487;-96
2021/05/06 06:44:26;;;;;;;7.10;5.33;;;;;;;;;;5163093;27;20435;-96
2021/05/06 06:47:01;;;;;;;11.70;6.20;;;;;;;;;;5153631;27;20991;-94
2021/05/06 06:49:28;;;;;;;10.10;7.27;;;;;;;;;;5152794;27;20448;-94
2021/05/06 06:51:55;;;;;;;7.17;6.03;;;;;;;;;;5159247;27;20507;-94
2021/05/06 06:54:21;;;;;;;10.10;6.83;;;;;;;;;;5159438;27;20442;-94
2021/05/06 06:56:47;;;;;;;10.00;7.50;;;;;;;;;;5144151;27;20463;-94
2021/05/06 06:59:13;;;;;;;8.93;7.70;;;;;;;;;;5162486;27;20446;-94
2021/05/06 07:01:39;;;;;;;7.70;5.30;;;;;;;;;;5164581;27;20456;-93
2021/05/06 07:04:05;;;;;;;9.67;4.90;;;;;;;;;;5146660;27;20446;-94
2021/05/06 07:06:31;;;;;;;6.50;4.33;;;;;;;;;;5156196;27;20460;-92
2021/05/06 07:08:58;;;;;;;7.70;4.60;;;;;;;;;;5155856;27;20450;-92
2021/05/06 07:11:24;;;;;;;6.30;4.13;;;;;;;;;;5159798;27;20479;-94
2021/05/06 07:13:50;;;;;;;5.23;3.80;;;;;;;;;;5151944;27;20460;-96
2021/05/06 07:16:16;;;;;;;5.60;3.70;;;;;;;;;;5158828;27;20495;-94
2021/05/06 07:18:42;;;;;;;4.27;3.40;;;;;;;;;;5157534;27;20441;-93
2021/05/06 07:21:08;;;;;;;6.70;4.37;;;;;;;;;;5160980;27;20442;-93
2021/05/06 07:23:35;;;;;;;9.87;4.40;;;;;;;;;;5157552;27;20472;-94
2021/05/06 07:26:03;;;;;;;8.13;4.13;;;;;;;;;;5162169;27;20439;-96
2021/05/06 07:28:32;;;;;;;6.37;4.00;;;;;;;;;;5161288;27;20469;-96
2021/05/06 07:31:01;;;;;;;4.53;4.13;;;;;;;;;;5167621;27;20436;-96
2021/05/06 07:33:28;;;;;;;4.67;3.70;;;;;;;;;;5260685;22;20511;-96
2021/05/06 07:36:03;;;;;;;5.47;4.10;;;;;;;;;;5108445;28;20446;-96
2021/05/06 07:38:31;;;;;;;5.20;3.50;;;;;;;;;;5081059;22;20503;-96
2021/05/06 07:40:59;;;;;;;5.60;4.20;;;;;;;;;;5054485;28;20447;-96
2021/05/06 07:43:26;;;;;;;8.10;4.30;;;;;;;;;;5049162;28;20480;-94
2021/05/06 07:45:53;;;;;;;5.27;3.87;;;;;;;;;;5045359;28;20454;-94
2021/05/06 07:48:19;;;;;;;6.30;3.80;;;;;;;;;;5042906;28;20491;-91
2021/05/06 07:50:45;;;;;;;6.83;4.07;;;;;;;;;;5042296;28;20453;-94
2021/05/06 07:53:24;;;;;;;3.00;2.70;;;;;;;;;;5059664;28;20500;-96
2021/05/06 07:55:51;;;;;;;7.70;2.70;;;;;;;;;;5056979;28;20467;-94
2021/05/06 07:58:17;;;;;;;3.13;2.80;;;;;;;;;;5053872;28;20453;-95
2021/05/06 08:00:44;;;;;;;3.07;2.83;;;;;;;;;;5043904;28;20508;-96
2021/05/06 08:03:10;;;;;;;4.43;3.00;;;;;;;;;;5039461;28;20427;-94
2021/05/06 08:05:37;;;;;;;4.30;3.50;;;;;;;;;;5051189;28;20454;-96
2021/05/06 08:08:04;;;;;;;4.33;2.73;;;;;;;;;;5067656;28;20442;-95
2021/05/06 08:10:30;;;;;;;2.83;2.57;;;;;;;;;;5035317;28;20447;-95
2021/05/06 08:12:56;;;;;;;2.83;2.63;;;;;;;;;;5059433;28;20497;-95
2021/05/06 08:15:25;;;;;;;4.47;2.80;;;;;;;;;;5048090;28;20462;-96
2021/05/06 08:20:36;;;;;;;2.90;2.60;;;;;;;;;;5056709;28;20470;-96
2021/05/06 08:23:03;;;;;;;2.97;2.70;;;;;;;;;;5045369;28;20471;-94
2021/05/06 08:25:29;;;;;;;3.00;2.70;;;;;;;;;;5059192;28;20471;-95
2021/05/06 08:27:56;;;;;;;3.30;2.73;;;;;;;;;;5056016;28;20449;-96
2021/05/06 08:30:25;;;;;;;2.60;2.40;;;;;;;;;;5061385;28;20445;-96
2021/05/06 08:32:52;;;;;;;3.27;2.80;;;;;;;;;;5045262;28;20565;-93
2021/05/06 08:35:18;;;;;;;5.00;2.70;;;;;;;;;;5058661;28;20435;-94
2021/05/06 08:37:44;;;;;;;4.03;2.40;;;;;;;;;;5051475;28;20481;-94
2021/05/06 08:40:10;;;;;;;4.37;2.80;;;;;;;;;;5047099;28;20454;-91
2021/05/06 08:42:41;;;;;;;2.37;2.20;;;;;;;;;;5054241;28;20447;-96
2021/05/06 08:45:18;;;;;;;2.73;2.53;;;;;;;;;;5063758;28;20513;-96
2021/05/06 08:47:48;;;;;;;3.23;2.30;;;;;;;;;;5053072;28;20468;-96
2021/05/06 08:50:23;;;;;;;3.27;2.50;;;;;;;;;;5143719;22;20809;-96
2021/05/06 08:52:50;;;;;;;4.27;2.40;;;;;;;;;;5246206;22;20505;-96
2021/05/06 08:55:16;;;;;;;4.50;2.50;;;;;;;;;;5073428;28;20804;-96
2021/05/06 08:57:42;;;;;;;3.97;2.60;;;;;;;;;;5071532;28;20457;-93
2021/05/06 09:00:09;;;;;;;4.30;2.10;;;;;;;;;;5079501;28;20440;-96
2021/05/06 09:02:35;;;;;;;4.00;2.70;;;;;;;;;;5071852;28;20457;-94
2021/05/06 09:05:04;;;;;;;2.93;2.13;;;;;;;;;;5075865;28;20429;-96
2021/05/06 09:07:31;;;;;;;3.50;2.10;;;;;;;;;;5072433;28;20453;-95
2021/05/06 09:09:58;;;;;;;2.40;1.77;;;;;;;;;;5079965;28;20450;-95
2021/05/06 09:12:42;;;;;;;3.57;2.10;;;;;;;;;;5062047;28;20507;-94
2021/05/06 09:15:13;;;;;;;1.83;1.70;;;;;;;;;;5071635;28;20450;-96
2021/05/06 09:17:45;;;;;;;2.30;2.10;;;;;;;;;;5078588;28;20445;-96
2021/05/06 09:20:17;;;;;;;2.10;1.90;;;;;;;;;;5113508;22;20498;-96
2021/05/06 09:22:44;;;;;;;3.40;2.33;;;;;;;;;;5120058;28;20466;-96
2021/05/06 09:25:27;;;;;;;2.50;2.00;;;;;;;;;;5117406;28;20431;-96
2021/05/06 09:28:20;;;;;;;2.17;2.00;;;;;;;;;;5106361;28;20447;-94
2021/05/06 09:33:30;;;;;;;2.50;2.00;;;;;;;;;;5094962;28;20571;-96
2021/05/06 09:36:00;;;;;;;3.07;1.90;;;;;;;;;;5106259;28;20505;-96
2021/05/06 09:38:55;;;;;;;2.10;2.00;;;;;;;;;;5107204;28;20457;-96
2021/05/06 09:41:22;;;;;;;2.50;2.00;;;;;;;;;;5092415;28;20450;-96
2021/05/06 09:43:49;;;;;;;2.33;2.13;;;;;;;;;;5109168;28;20457;-96
2021/05/06 09:46:31;;;;;;;10.53;2.30;;;;;;;;;;5104084;28;20466;-95
2021/05/06 09:49:05;;;;;;;3.03;2.10;;;;;;;;;;5107078;28;20454;-96
2021/05/06 09:51:36;;;;;;;2.03;1.93;;;;;;;;;;5107283;28;21044;-96
2021/05/06 09:54:04;;;;;;;2.57;2.37;;;;;;;;;;5106005;28;20463;-96
2021/05/06 09:56:30;;;;;;;3.00;2.27;;;;;;;;;;5102426;28;20454;-96
2021/05/06 10:01:46;;;;;;;2.40;2.20;;;;;;;;;;5108721;28;20512;-96
2021/05/06 10:04:18;;;;;;;2.30;2.03;;;;;;;;;;5109183;28;20501;-96
2021/05/06 10:07:03;;;;;;;4.17;2.50;;;;;;;;;;5109173;28;20467;-96
2021/05/06 10:09:33;;;;;;;4.70;1.93;;;;;;;;;;5110887;28;20460;-96
2021/05/06 10:11:59;;;;;;;3.53;2.30;;;;;;;;;;5105849;28;20475;-96
2021/05/06 10:14:26;;;;;;;4.90;2.57;;;;;;;;;;5106348;28;20440;-96
2021/05/06 10:16:52;;;;;;;2.30;1.97;;;;;;;;;;5100675;28;20463;-95
2021/05/06 10:19:27;;;;;;;3.00;2.23;;;;;;;;;;5110861;28;20440;-93
2021/05/06 10:21:56;;;;;;;2.30;2.17;;;;;;;;;;5146435;22;20498;-96
2021/05/06 10:24:23;;;;;;;4.53;2.67;;;;;;;;;;5118965;28;20493;-96
2021/05/06 10:29:32;;;;;;;4.27;2.10;;;;;;;;;;5115656;28;20448;-94
2021/05/06 10:32:03;;;;;;;2.60;2.40;;;;;;;;;;5112648;28;20686;-96
2021/05/06 10:34:34;;;;;;;3.23;2.40;;;;;;;;;;5111797;28;20447;-96
2021/05/06 10:37:01;;;;;;;2.97;2.10;;;;;;;;;;5124044;28;20448;-95
2021/05/06 10:39:36;;;;;;;2.10;2.00;;;;;;;;;;5124906;28;20447;-96
2021/05/06 10:42:32;;;;;;;2.20;2.10;;;;;;;;;;5115716;28;20443;-96
2021/05/06 10:45:01;;;;;;;2.40;2.20;;;;;;;;;;5108830;28;20460;-96
2021/05/06 10:47:42;;;;;;;2.93;2.40;;;;;;;;;;5112494;28;20460;-96
2021/05/06 10:50:12;;;;;;;3.03;2.47;;;;;;;;;;5093977;28;21020;-94
2021/05/06 10:52:39;;;;;;;2.97;2.40;;;;;;;;;;5113651;28;20467;-95
2021/05/06 10:55:08;;;;;;;2.43;2.23;;;;;;;;;;5125170;28;20458;-93
2021/05/06 10:57:35;;;;;;;2.80;2.30;;;;;;;;;;5109794;28;20464;-94
2021/05/06 11:00:01;;;;;;;2.40;2.20;;;;;;;;;;5111744;28;20451;-94
2021/05/06 11:05:28;;;;;;;4.60;2.20;;;;;;;;;;5107409;28;20520;-94
2021/05/06 11:08:13;;;;;;;2.30;2.07;;;;;;;;;;5120537;28;20471;-93
2021/05/06 11:11:07;;;;;;;2.47;2.27;;;;;;;;;;5122779;28;20455;-95
2021/05/06 11:13:48;;;;;;;2.40;2.20;;;;;;;;;;5111118;28;20488;-94
2021/05/06 11:16:15;;;;;;;3.83;2.80;;;;;;;;;;5114277;28;20441;-95
2021/05/06 11:18:43;;;;;;;2.73;2.53;;;;;;;;;;5109286;28;20436;-95
2021/05/06 11:21:09;;;;;;;2.60;2.40;;;;;;;;;;5100642;28;20841;-94
2021/05/06 11:23:36;;;;;;;2.40;2.30;;;;;;;;;;5109469;28;20486;-93
2021/05/06 11:26:04;;;;;;;2.70;2.50;;;;;;;;;;5104121;28;20482;-94
2021/05/06 11:28:38;;;;;;;3.00;2.80;;;;;;;;;;5117747;28;20456;-92
2021/05/06 11:31:05;;;;;;;3.00;2.70;;;;;;;;;;5101257;28;20449;-96
2021/05/06 11:33:37;;;;;;;2.77;2.50;;;;;;;;;;5120388;28;20554;-95
2021/05/06 11:36:08;;;;;;;4.60;2.60;;;;;;;;;;5111301;28;20448;-96
2021/05/06 11:38:46;;;;;;;3.37;2.63;;;;;;;;;;5110835;28;20457;-96
2021/05/06 11:41:13;;;;;;;2.30;2.20;;;;;;;;;;5112569;28;20565;-93
2021/05/06 11:43:40;;;;;;;2.20;2.00;;;;;;;;;;5120468;28;20491;-91
2021/05/06 11:46:10;;;;;;;2.80;2.50;;;;;;;;;;5121817;28;20507;-96
2021/05/06 11:48:37;;;;;;;3.67;2.40;;;;;;;;;;5121136;28;20440;-93
2021/05/06 11:51:04;;;;;;;2.93;2.60;;;;;;;;;;5102669;28;20444;-95
2021/05/06 11:53:30;;;;;;;2.83;2.20;;;;;;;;;;5113500;28;20499;-95
2021/05/06 11:58:51;;;;;;;2.60;2.40;;;;;;;;;;5120006;28;20435;-96
2021/05/06 12:01:23;;;;;;;2.20;2.10;;;;;;;;;;5122284;28;20443;-96
2021/05/06 12:03:51;;;;;;;3.83;2.30;;;;;;;;;;5121635;28;20477;-96
2021/05/06 12:06:26;;;;;;;2.47;2.20;;;;;;;;;;5101502;28;20444;-93
2021/05/06 12:08:52;;;;;;;3.33;2.67;;;;;;;;;;5100132;28;20452;-92
2021/05/06 12:11:18;;;;;;;2.27;2.10;;;;;;;;;;5123102;28;20462;-95
2021/05/06 12:13:44;;;;;;;2.33;2.20;;;;;;;;;;5117463;28;20501;-94
2021/05/06 12:16:11;;;;;;;3.40;2.40;;;;;;;;;;5118800;28;20455;-93
2021/05/06 12:18:37;;;;;;;2.40;2.20;;;;;;;;;;5121701;28;20473;-96
2021/05/06 12:21:05;;;;;;;2.00;1.90;;;;;;;;;;5118885;28;20541;-93
2021/05/06 12:23:32;;;;;;;2.97;2.67;;;;;;;;;;5118349;28;20467;-94
2021/05/06 12:25:58;;;;;;;2.67;2.47;;;;;;;;;;5117901;28;20470;-93
2021/05/06 12:28:24;;;;;;;2.67;2.47;;;;;;;;;;5108763;28;20444;-95
2021/05/06 12:30:57;;;;;;;3.33;2.63;;;;;;;;;;5092390;22;20501;-92
2021/05/06 12:33:30;;;;;;;2.77;2.10;;;;;;;;;;5080284;28;20488;-93
2021/05/06 12:35:56;;;;;;;3.07;2.87;;;;;;;;;;5077213;28;20494;-92
2021/05/06 12:38:23;;;;;;;2.50;2.40;;;;;;;;;;5080369;28;20475;-92
2021/05/06 12:40:52;;;;;;;3.00;2.40;;;;;;;;;;5073443;28;20530;-95
2021/05/06 12:43:22;;;;;;;2.33;2.13;;;;;;;;;;5098979;28;20531;-92
2021/05/06 12:46:05;;;;;;;3.30;2.27;;;;;;;;;;5092512;28;20492;-95
2021/05/06 12:48:39;;;;;;;2.90;2.40;;;;;;;;;;5111466;28;20448;-94
2021/05/06 12:51:07;;;;;;;3.10;2.80;;;;;;;;;;5099248;22;20515;-96
2021/05/06 12:53:57;;;;;;;2.40;2.10;;;;;;;;;;5088072;28;20480;-96
2021/05/06 12:57:17;;;;;;;2.50;2.30;;;;;;;;;;5287768;22;20469;-96
2021/05/06 13:02:11;;;;;;;3.20;2.40;;;;;;;;;;5290284;22;20571;-95
2021/05/06 13:04:47;;;;;;;2.47;2.27;;;;;;;;;;5078067;28;20471;-93
2021/05/06 13:07:15;;;;;;;2.90;2.60;;;;;;;;;;5090311;28;20448;-96
2021/05/06 13:09:55;;;;;;;2.63;2.30;;;;;;;;;;5132547;22;20536;-95
2021/05/06 13:12:23;;;;;;;2.60;2.50;;;;;;;;;;5059193;28;20477;-93
2021/05/06 13:14:56;;;;;;;3.30;2.40;;;;;;;;;;5066589;28;20517;-94
2021/05/06 13:17:24;;;;;;;2.50;2.33;;;;;;;;;;5052631;28;20458;-95
2021/05/06 13:19:51;;;;;;;2.87;2.67;;;;;;;;;;5066128;28;20984;-94
2021/05/06 13:22:18;;;;;;;2.33;2.20;;;;;;;;;;5070898;28;22893;-96
2021/05/06 13:24:52;;;;;;;2.67;2.47;;;;;;;;;;5067641;28;20461;-96
2021/05/06 13:27:19;;;;;;;2.83;2.40;;;;;;;;;;5068319;28;20450;-96
2021/05/06 13:29:51;;;;;;;3.70;2.43;;;;;;;;;;5056697;28;20443;-95
2021/05/06 13:32:17;;;;;;;2.40;2.30;;;;;;;;;;5023901;28;20514;-92
2021/05/06 13:34:56;;;;;;;2.83;2.23;;;;;;;;;;5067680;28;20446;-94
2021/05/06 13:37:22;;;;;;;3.87;2.70;;;;;;;;;;5058316;28;20473;-96
2021/05/06 13:40:24;;;;;;;3.27;2.50;;;;;;;;;;5079386;28;20445;-95
2021/05/06 13:45:26;;;;;;;3.20;2.50;;;;;;;;;;5161090;22;20529;-96
2021/05/06 13:48:05;;;;;;;3.57;2.50;;;;;;;;;;5060147;28;20442;-96
2021/05/06 13:50:31;;;;;;;2.63;2.43;;;;;;;;;;5056687;28;20461;-96
2021/05/06 13:53:05;;;;;;;3.90;3.43;;;;;;;;;;5073050;23;20488;-96
2021/05/06 13:55:31;;;;;;;3.67;2.30;;;;;;;;;;5076136;28;20493;-96
2021/05/06 13:57:57;;;;;;;2.40;2.30;;;;;;;;;;5064839;28;20453;-95
2021/05/06 14:00:24;;;;;;;3.03;2.70;;;;;;;;;;5062156;28;20462;-94
2021/05/06 14:02:52;;;;;;;2.27;2.17;;;;;;;;;;5069930;28;20445;-95
2021/05/06 14:05:22;;;;;;;2.20;2.10;;;;;;;;;;5078251;23;20597;-95
2021/05/06 14:10:23;;;;;;;3.40;2.47;;;;;;;;;;3610251;23;20559;-96
2021/05/06 14:12:49;;;;;;;2.27;2.13;;;;;;;;;;5049699;23;21304;-95
2021/05/06 14:15:29;;;;;;;5.07;2.57;;;;;;;;;;5059323;28;20430;-96
2021/05/06 14:17:56;;;;;;;2.60;2.40;;;;;;;;;;5070913;23;20501;-93
2021/05/06 14:26:31;;;;;;;4.30;2.90;;;;;;;;;;5469672;22;20509;-94
2021/05/06 14:31:32;;;;;;;2.90;2.17;;;;;;;;;;5171410;22;20893;-96
2021/05/06 14:37:04;;;;;;;3.57;2.67;;;;;;;;;;5033008;28;20465;-95
2021/05/06 14:42:29;;;;;;;2.40;2.20;;;;;;;;;;5084434;22;20536;-96
2021/05/06 14:52:46;;;;;;;3.03;2.30;;;;;;;;;;5048148;28;20471;-93
2021/05/06 14:57:47;;;;;;;2.40;2.20;;;;;;;;;;5082166;23;20540;-95
2021/05/06 15:00:14;;;;;;;2.60;2.40;;;;;;;;;;5031761;28;20571;-94
2021/05/06 15:02:41;;;;;;;5.57;2.70;;;;;;;;;;5034648;28;20474;-96
2021/05/06 15:05:21;;;;;;;2.50;2.00;;;;;;;;;;5043092;28;20456;-93
2021/05/06 15:07:48;;;;;;;2.50;2.30;;;;;;;;;;5026039;28;20472;-96
2021/05/06 15:10:15;;;;;;;2.57;2.40;;;;;;;;;;5037865;28;20636;-96
2021/05/06 15:12:43;;;;;;;4.93;2.27;;;;;;;;;;5037452;28;21072;-94
2021/05/06 15:15:11;;;;;;;2.50;2.30;;;;;;;;;;5030590;28;20444;-96
2021/05/06 15:17:37;;;;;;;2.37;2.13;;;;;;;;;;5021553;28;20452;-94
2021/05/06 15:20:03;;;;;;;2.50;2.30;;;;;;;;;;5040568;28;20442;-94
2021/05/06 15:22:29;;;;;;;3.40;2.40;;;;;;;;;;5043023;28;21201;-93
2021/05/06 15:24:56;;;;;;;2.90;2.30;;;;;;;;;;5040160;28;20961;-93
2021/05/06 15:27:25;;;;;;;2.17;2.00;;;;;;;;;;5034362;28;20551;-95
2021/05/06 15:29:51;;;;;;;2.43;2.20;;;;;;;;;;5031946;28;20447;-92
2021/05/06 15:32:18;;;;;;;2.77;2.50;;;;;;;;;;5038435;28;20471;-94
2021/05/06 15:34:44;;;;;;;2.90;2.30;;;;;;;;;;5032235;28;20470;-96
2021/05/06 15:37:10;;;;;;;2.47;2.23;;;;;;;;;;5014604;28;20452;-94
2021/05/06 15:39:36;;;;;;;2.20;2.10;;;;;;;;;;5021553;28;20783;-93
2021/05/06 15:42:03;;;;;;;3.13;2.30;;;;;;;;;;5031568;28;20489;-96
2021/05/06 15:44:30;;;;;;;7.60;2.60;;;;;;;;;;5027428;28;20448;-96
2021/05/06 15:46:59;;;;;;;4.10;2.40;;;;;;;;;;5041345;28;20462;-96
2021/05/06 15:49:26;;;;;;;3.20;2.10;;;;;;;;;;5033915;28;20455;-93
2021/05/06 15:51:52;;;;;;;3.00;2.57;;;;;;;;;;5040827;28;20452;-93
2021/05/06 15:54:18;;;;;;;2.83;2.30;;;;;;;;;;5035645;28;20448;-96
2021/05/06 15:56:45;;;;;;;4.00;2.20;;;;;;;;;;5029808;28;20468;-95
2021/05/06 15:59:15;;;;;;;3.03;2.50;;;;;;;;;;5016664;28;20460;-96
2021/05/06 16:01:41;;;;;;;3.73;2.13;;;;;;;;;;5022366;28;20451;-96
2021/05/06 16:04:09;;;;;;;2.50;2.07;;;;;;;;;;5017568;28;20486;-96
2021/05/06 16:06:36;;;;;;;2.10;2.00;;;;;;;;;;5011976;28;20524;-96
2021/05/06 16:09:05;;;;;;;2.10;2.00;;;;;;;;;;5006152;28;20486;-96
2021/05/06 16:11:32;;;;;;;2.63;2.10;;;;;;;;;;5011362;28;20501;-96
2021/05/06 16:13:58;;;;;;;2.57;2.07;;;;;;;;;;5032650;28;20503;-96
2021/05/06 16:16:25;;;;;;;4.27;2.33;;;;;;;;;;5020895;28;20475;-95
2021/05/06 16:18:57;;;;;;;2.40;2.20;;;;;;;;;;5012825;28;20437;-96
2021/05/06 16:21:26;;;;;;;2.87;2.63;;;;;;;;;;5018339;28;20439;-96
2021/05/06 16:23:52;;;;;;;2.93;2.73;;;;;;;;;;5012862;28;20472;-96
2021/05/06 16:26:21;;;;;;;7.07;2.40;;;;;;;;;;5026230;28;20559;-96
2021/05/06 16:28:54;;;;;;;5.90;2.40;;;;;;;;;;5011206;28;20457;-96
2021/05/06 16:31:20;;;;;;;3.87;2.57;;;;;;;;;;5010834;28;20468;-96
2021/05/06 16:33:50;;;;;;;9.80;2.43;;;;;;;;;;5025339;28;20559;-96
2021/05/06 16:36:21;;;;;;;3.23;2.20;;;;;;;;;;5017377;28;20725;-96
2021/05/06 16:38:54;;;;;;;2.40;2.20;;;;;;;;;;5004958;28;20441;-96
2021/05/06 16:41:29;;;;;;;2.37;2.17;;;;;;;;;;5013628;28;20471;-96
2021/05/06 16:44:02;;;;;;;4.33;2.20;;;;;;;;;;5029402;28;20510;-95
2021/05/06 16:46:28;;;;;;;4.20;2.37;;;;;;;;;;5019844;28;20495;-96
2021/05/06 16:48:55;;;;;;;5.00;2.33;;;;;;;;;;5016065;28;21014;-95
2021/05/06 16:51:22;;;;;;;5.63;2.67;;;;;;;;;;5005586;28;20456;-95
2021/05/06 16:53:50;;;;;;;14.80;3.67;;;;;;;;;;5006024;28;20496;-96
2021/05/06 16:56:17;;;;;;;4.10;2.40;;;;;;;;;;5022836;28;20471;-96
2021/05/06 17:07:00;;;;;;;3.90;2.60;;;;;;;;;;5908398;22;20476;-96
2021/05/06 17:17:26;;;;;;;2.73;2.53;;;;;;;;;;5138749;22;20481;-96
2021/05/06 17:20:00;;;;;;;3.30;2.73;;;;;;;;;;5042050;28;20530;-96
2021/05/06 17:22:37;;;;;;;4.47;2.60;;;;;;;;;;5049861;28;20437;-96
2021/05/06 17:25:08;;;;;;;3.40;3.10;;;;;;;;;;5050058;28;20440;-96
2021/05/06 17:27:36;;;;;;;3.87;2.87;;;;;;;;;;5038465;28;20893;-96
2021/05/06 17:30:03;;;;;;;6.60;2.87;;;;;;;;;;5056243;28;20462;-96
2021/05/06 17:32:35;;;;;;;3.80;3.50;;;;;;;;;;5050575;28;20498;-96
2021/05/06 17:38:10;;;;;;;4.63;4.23;;;;;;;;;;5429988;22;20476;-96
2021/05/06 17:55:19;;;;;;;6.60;4.30;;;;;;;;;;4973544;28;20587;-94
2021/05/06 18:00:23;;;;;;;5.83;5.03;;;;;;;;;;5021294;23;20588;-96
2021/05/06 18:02:53;;;;;;;7.20;5.30;;;;;;;;;;5086885;23;20488;-96
2021/05/06 18:05:22;;;;;;;10.33;6.27;;;;;;;;;;5045857;23;20497;-96
2021/05/06 18:07:54;;;;;;;12.40;5.80;;;;;;;;;;4980114;28;20452;-96
2021/05/06 18:10:46;;;;;;;6.50;5.03;;;;;;;;;;4970493;28;20521;-96
2021/05/06 18:13:13;;;;;;;10.07;5.30;;;;;;;;;;4966179;28;20502;-96
2021/05/06 18:15:40;;;;;;;5.10;4.60;;;;;;;;;;4968002;28;20450;-96
2021/05/06 18:18:09;;;;;;;5.10;4.47;;;;;;;;;;4986727;28;20464;-96
2021/05/06 18:26:45;;;;;;;5.20;4.20;;;;;;;;;;4994805;28;20471;-96
2021/05/06 19:18:28;;;;;;;7.80;4.40;;;;;;;;;;4980970;28;20441;-96
2021/05/06 19:43:43;;;;;;;3.70;3.10;;;;;;;;;;5128027;22;20519;-96
2021/05/06 21:15:00;;;;;;;4.97;3.23;;;;;;;;;;5690249;23;20854;-96
2021/05/06 23:28:23;;;;;;;4.70;3.73;;;;;;;;;;5803322;23;20612;-96
2021/05/06 23:47:30;;;;;;;4.10;3.70;;;;;;;;;;5939461;23;20542;-96
2021/05/06 23:55:23;;;;;;;4.60;3.70;;;;;;;;;;5946818;22;20453;-96
